MMCU/CUU METAR and TAF weather

Enter ICAO airport designator
Station Type Date Time Source
MMCU METAR 2021/07/30 02:40 UTC NOAA

MMCU 300240Z 15004KT 10SM SCT030 BKN070 18/17 A3021 RMK SLP145 52003 919 8/470 VC CB OCNL DROPS


Station Type Date Time Source
MMCU Decoded METAR 2021/07/30 02:40 UTC NOAA

Chihuahua International Airport, Mexico (MMCU) 28-42N 105-58W
Jul 29, 2021 - 10:40 PM EDT / 2021.07.30 0240 UTC
Wind: from the SSE (150 degrees) at 5 MPH (4 KT):0
Visibility: 10 mile(s):0
Sky conditions: mostly cloudy
Weather: Cumulonimbus clouds observed
Temperature: 64 F (18 C)
Dew Point: 62 F (17 C)
Relative Humidity: 93%
Pressure (altimeter): 30.21 in. Hg (1023 hPa)
Pressure tendency: 0.01 inches (0.3 hPa) higher than three hours ago
ob: MMCU 300240Z 15004KT 10SM SCT030 BKN070 18/17 A3021 RMK SLP145 52003 919 8/470 VC CB OCNL DROPS
cycle: 2

Station Type Date Time Source
MMCU TAF 2021/07/30 06:57 UTC NOAA

TAF MMCU 300255Z 3006/3106 00000KT P6SM SCT030 BKN080
FM301800 12012KT P6SM SCT030 BKN080 BKN250
FM310500 12005KT P6SM SCT025 SCT080

Example: see airport list